KDPG/DPG METAR and TAF weather

Enter ICAO airport designator
Station Type Date Time Source
KDPG METAR 2021/10/22 18:50 UTC NOAA

KDPG 221850Z 16012G19KT 50SM SCT170 SCT190 BKN260 18/M03 A2996 RMK VIRGA ACSL DSNT NE AND SE SLP116 T01841026 LAST


Station Type Date Time Source
KDPG Decoded METAR 2021/10/22 18:50 UTC NOAA

Dugway Proving Grounds, UT, United States (KDPG) 40-10N 112-56W 1325M
Oct 22, 2021 - 02:50 PM EDT / 2021.10.22 1850 UTC
Wind: from the SSE (160 degrees) at 14 MPH (12 KT) gusting to 22 MPH (19 KT):0
Visibility: 50 mile(s):0
Sky conditions: mostly cloudy
Temperature: 65.1 F (18.4 C)
Dew Point: 27.3 F (-2.6 C)
Relative Humidity: 23%
Pressure (altimeter): 29.96 in. Hg (1014 hPa)
ob: KDPG 221850Z 16012G19KT 50SM SCT170 SCT190 BKN260 18/M03 A2996 RMK VIRGA ACSL DSNT NE AND SE SLP116 T01841026 LAST
cycle: 19

Station Type Date Time Source
KDPG TAF UTC NOAA

Error!

Example: see airport list